createdAt,value
2017-04-17T00:00:43.657Z,977.24
2017-04-17T00:01:44.269Z,977.26
2017-04-17T00:02:44.883Z,977.23
2017-04-17T00:03:45.475Z,977.19
2017-04-17T00:04:46.069Z,977.19
2017-04-17T00:05:46.669Z,977.22
2017-04-17T00:06:47.277Z,977.17
2017-04-17T00:07:47.878Z,977.17
2017-04-17T00:08:48.490Z,977.14
2017-04-17T00:09:49.089Z,977.16
2017-04-17T00:10:49.707Z,977.12
2017-04-17T00:11:50.305Z,977.15
2017-04-17T00:12:50.898Z,977.14
2017-04-17T00:13:51.493Z,977.11
2017-04-17T00:14:52.088Z,977.17
2017-04-17T00:15:52.684Z,977.15
2017-04-17T00:16:53.296Z,977.14
2017-04-17T00:17:53.891Z,977.12
2017-04-17T00:18:54.487Z,977.12
2017-04-17T00:19:55.082Z,977.12
2017-04-17T00:20:55.717Z,977.07
2017-04-17T00:21:56.319Z,977.07
2017-04-17T00:22:56.911Z,977.09
2017-04-17T00:23:57.505Z,977.07
2017-04-17T00:24:58.106Z,977.05
2017-04-17T00:25:58.702Z,977.02
2017-04-17T00:26:59.294Z,977.01
2017-04-17T00:27:59.890Z,976.98
2017-04-17T00:29:00.485Z,977.03
2017-04-17T00:30:01.086Z,977.02
2017-04-17T00:31:01.689Z,976.99
2017-04-17T00:32:02.279Z,977.00
2017-04-17T00:33:02.873Z,976.98
2017-04-17T00:34:03.470Z,976.97
2017-04-17T00:35:04.088Z,976.93
2017-04-17T00:36:04.679Z,976.92
2017-04-17T00:37:05.276Z,976.96
2017-04-17T00:38:05.872Z,976.97
2017-04-17T00:39:06.483Z,976.99
2017-04-17T00:40:07.093Z,976.96
2017-04-17T00:41:07.691Z,976.95
2017-04-17T00:42:08.289Z,976.99
2017-04-17T00:43:08.881Z,976.98
2017-04-17T00:44:09.476Z,976.98
2017-04-17T00:45:10.072Z,976.96
2017-04-17T00:46:10.675Z,976.93
2017-04-17T00:47:11.291Z,976.95
2017-04-17T00:48:11.891Z,976.92
2017-04-17T00:49:12.502Z,976.90
2017-04-17T00:50:13.097Z,976.89
2017-04-17T00:51:13.698Z,976.86
2017-04-17T00:52:14.309Z,976.90
2017-04-17T00:53:14.906Z,976.86
2017-04-17T00:54:15.509Z,976.84
2017-04-17T00:55:16.101Z,976.82
2017-04-17T00:56:16.712Z,976.84
2017-04-17T00:57:17.307Z,976.85
2017-04-17T00:58:17.904Z,976.84
2017-04-17T00:59:18.501Z,976.84
2017-04-17T01:00:19.096Z,976.82
2017-04-17T01:01:19.692Z,976.80
2017-04-17T01:02:20.288Z,976.79
2017-04-17T01:03:20.899Z,976.80
2017-04-17T01:04:21.499Z,976.78
2017-04-17T01:05:22.093Z,976.72
2017-04-17T01:06:22.687Z,976.74
2017-04-17T01:07:23.287Z,976.71
2017-04-17T01:08:23.883Z,976.72
2017-04-17T01:09:24.491Z,976.71
2017-04-17T01:10:25.103Z,976.71
2017-04-17T01:11:25.699Z,976.69
2017-04-17T01:12:26.299Z,976.68
2017-04-17T01:13:26.890Z,976.65
2017-04-17T01:14:27.490Z,976.64
2017-04-17T01:15:28.089Z,976.59
2017-04-17T01:16:28.682Z,976.60
2017-04-17T01:17:29.284Z,976.61
2017-04-17T01:18:29.874Z,976.56
2017-04-17T01:19:30.469Z,976.60
2017-04-17T01:20:31.065Z,976.55
2017-04-17T01:21:31.660Z,976.54
2017-04-17T01:22:32.256Z,976.50
2017-04-17T01:23:32.859Z,976.50
2017-04-17T01:24:33.454Z,976.51
2017-04-17T01:25:34.051Z,976.47
2017-04-17T01:26:34.668Z,976.49
2017-04-17T01:27:35.268Z,976.50
2017-04-17T01:28:35.859Z,976.45
2017-04-17T01:29:36.461Z,976.43
2017-04-17T01:30:37.054Z,976.47
2017-04-17T01:31:37.651Z,976.44
2017-04-17T01:32:38.254Z,976.45
2017-04-17T01:33:38.846Z,976.40
2017-04-17T01:34:39.446Z,976.40
2017-04-17T01:35:40.058Z,976.40
2017-04-17T01:36:40.660Z,976.39
2017-04-17T01:37:41.253Z,976.35
2017-04-17T01:38:41.849Z,976.31
2017-04-17T01:39:42.444Z,976.29
2017-04-17T01:40:43.040Z,976.27
2017-04-17T01:41:43.638Z,976.27
2017-04-17T01:42:44.231Z,976.30
2017-04-17T01:43:44.826Z,976.25
2017-04-17T01:44:45.430Z,976.23
2017-04-17T01:45:46.024Z,976.26
2017-04-17T01:46:46.639Z,976.24
2017-04-17T01:47:47.220Z,976.21
2017-04-17T01:48:47.814Z,976.22
2017-04-17T01:49:48.415Z,976.20
2017-04-17T01:50:49.011Z,976.17
2017-04-17T01:51:49.602Z,976.18
2017-04-17T01:52:50.199Z,976.18
2017-04-17T01:53:50.794Z,976.17
2017-04-17T01:54:51.389Z,976.16
2017-04-17T01:55:51.986Z,976.18
2017-04-17T01:56:52.597Z,976.14
2017-04-17T01:57:53.192Z,976.14
2017-04-17T01:58:53.803Z,976.13
2017-04-17T01:59:54.398Z,976.14
2017-04-17T02:00:54.993Z,976.12
2017-04-17T02:01:55.604Z,976.10
2017-04-17T02:02:56.205Z,976.07
2017-04-17T02:03:56.798Z,976.06
2017-04-17T02:04:57.400Z,976.06
2017-04-17T02:05:58.001Z,976.01
2017-04-17T02:06:58.594Z,976.03
2017-04-17T02:07:59.188Z,976.01
2017-04-17T02:08:59.790Z,976.03
2017-04-17T02:10:00.382Z,976.04
2017-04-17T02:11:00.982Z,976.06
2017-04-17T02:12:01.599Z,976.04
2017-04-17T02:13:02.196Z,976.00
2017-04-17T02:14:02.789Z,976.00
2017-04-17T02:15:03.384Z,976.00
2017-04-17T02:16:03.993Z,976.02
2017-04-17T02:17:04.588Z,976.02
2017-04-17T02:18:05.393Z,976.01
2017-04-17T02:19:05.989Z,976.00
2017-04-17T02:20:06.584Z,975.96
2017-04-17T02:21:07.180Z,976.00
2017-04-17T02:22:07.797Z,976.03
2017-04-17T02:23:08.390Z,976.02
2017-04-17T02:24:08.987Z,976.02
2017-04-17T02:25:09.581Z,976.01
2017-04-17T02:26:10.178Z,976.03
2017-04-17T02:27:10.772Z,975.99
2017-04-17T02:28:11.373Z,975.98
2017-04-17T02:29:11.987Z,976.01
2017-04-17T02:30:12.578Z,976.02
2017-04-17T02:31:13.175Z,976.00
2017-04-17T02:32:13.786Z,976.00
2017-04-17T02:33:14.380Z,976.00
2017-04-17T02:34:14.982Z,975.98
2017-04-17T02:35:15.575Z,975.94
2017-04-17T02:36:16.169Z,975.94
2017-04-17T02:37:16.767Z,975.93
2017-04-17T02:38:17.367Z,975.91
2017-04-17T02:39:17.960Z,975.96
2017-04-17T02:40:18.555Z,975.93
2017-04-17T02:41:19.154Z,975.93
2017-04-17T02:42:19.747Z,975.94
2017-04-17T02:43:20.341Z,975.89
2017-04-17T02:44:20.952Z,975.91
2017-04-17T02:45:21.549Z,975.92
2017-04-17T02:46:22.143Z,975.87
2017-04-17T02:47:22.740Z,975.87
2017-04-17T02:48:23.351Z,975.86
2017-04-17T02:49:23.962Z,975.85
2017-04-17T02:50:24.557Z,975.87
2017-04-17T02:51:25.154Z,975.84
2017-04-17T02:52:25.768Z,975.86
2017-04-17T02:53:26.376Z,975.84
2017-04-17T02:54:26.988Z,975.83
2017-04-17T02:55:27.583Z,975.81
2017-04-17T02:56:28.201Z,975.77
2017-04-17T02:57:28.957Z,975.77
2017-04-17T02:58:29.553Z,975.80
2017-04-17T02:59:30.148Z,975.78
2017-04-17T03:00:30.743Z,975.79
2017-04-17T03:01:31.339Z,975.74
2017-04-17T03:02:31.934Z,975.71
2017-04-17T03:03:32.530Z,975.67
2017-04-17T03:04:33.125Z,975.71
2017-04-17T03:05:33.721Z,975.66
2017-04-17T03:06:34.318Z,975.64
2017-04-17T03:07:34.912Z,975.63
2017-04-17T03:08:35.514Z,975.60
2017-04-17T03:09:36.109Z,975.63
2017-04-17T03:10:36.720Z,975.62
2017-04-17T03:11:37.320Z,975.59
2017-04-17T03:12:37.915Z,975.60
2017-04-17T03:13:38.512Z,975.60
2017-04-17T03:14:39.108Z,975.58
2017-04-17T03:15:39.703Z,975.57
2017-04-17T03:16:40.304Z,975.61
2017-04-17T03:17:40.899Z,975.58
2017-04-17T03:18:41.509Z,975.59
2017-04-17T03:19:42.105Z,975.56
2017-04-17T03:20:42.706Z,975.58
2017-04-17T03:21:43.322Z,975.56
2017-04-17T03:22:43.916Z,975.60
2017-04-17T03:23:44.510Z,975.54
2017-04-17T03:24:45.165Z,975.52
2017-04-17T03:25:45.762Z,975.53
2017-04-17T03:26:46.357Z,975.57
2017-04-17T03:27:46.953Z,975.56
2017-04-17T03:28:47.555Z,975.52
2017-04-17T03:29:48.153Z,975.55
2017-04-17T03:30:48.746Z,975.53
2017-04-17T03:31:49.413Z,975.47
2017-04-17T03:32:50.071Z,975.46
2017-04-17T03:33:50.663Z,975.48
2017-04-17T03:34:51.259Z,975.41
2017-04-17T03:35:51.876Z,975.43
2017-04-17T03:36:53.199Z,975.42
2017-04-17T03:37:53.796Z,975.46
2017-04-17T03:38:54.405Z,975.45
2017-04-17T03:39:55.005Z,975.40
2017-04-17T03:40:55.615Z,975.39
2017-04-17T03:41:56.210Z,975.37
2017-04-17T03:42:56.827Z,975.38
2017-04-17T03:43:57.420Z,975.38
2017-04-17T03:44:58.015Z,975.35
2017-04-17T03:45:58.625Z,975.34
2017-04-17T03:46:59.229Z,975.30
2017-04-17T03:47:59.849Z,975.28
2017-04-17T03:49:00.444Z,975.30
2017-04-17T03:50:01.045Z,975.28
2017-04-17T03:51:01.640Z,975.26
2017-04-17T03:52:02.234Z,975.27
2017-04-17T03:53:02.830Z,975.22
2017-04-17T03:54:03.424Z,975.21
2017-04-17T03:55:04.018Z,975.21
2017-04-17T03:56:04.620Z,975.21
2017-04-17T03:57:05.212Z,975.19
2017-04-17T03:58:05.806Z,975.14
2017-04-17T03:59:06.402Z,975.13
2017-04-17T04:00:06.996Z,975.07
2017-04-17T04:01:07.598Z,975.05
2017-04-17T04:02:08.208Z,975.04
2017-04-17T04:03:08.806Z,975.02
2017-04-17T04:04:09.398Z,975.01
2017-04-17T04:05:10.053Z,975.01
2017-04-17T04:06:10.663Z,974.96
2017-04-17T04:07:11.257Z,974.99
2017-04-17T04:08:11.858Z,975.01
2017-04-17T04:09:12.467Z,974.96
2017-04-17T04:10:13.077Z,974.97
2017-04-17T04:11:13.670Z,975.00
2017-04-17T04:12:14.273Z,974.97
2017-04-17T04:13:14.863Z,975.00
2017-04-17T04:14:15.468Z,975.01
2017-04-17T04:15:16.078Z,975.03
2017-04-17T04:16:16.668Z,975.01
2017-04-17T04:17:17.264Z,975.04
2017-04-17T04:18:17.862Z,975.03
2017-04-17T04:19:18.452Z,975.07
2017-04-17T04:20:19.052Z,975.02
2017-04-17T04:21:19.649Z,975.00
2017-04-17T04:22:20.248Z,975.06
2017-04-17T04:23:20.840Z,975.05
2017-04-17T04:24:21.436Z,975.00
2017-04-17T04:25:22.029Z,975.00
2017-04-17T04:26:22.631Z,975.03
2017-04-17T04:27:23.241Z,974.97
2017-04-17T04:28:23.839Z,974.99
2017-04-17T04:29:24.440Z,974.95
2017-04-17T04:30:25.031Z,974.96
2017-04-17T04:31:25.624Z,974.92
2017-04-17T04:32:26.221Z,974.88
2017-04-17T04:33:26.822Z,974.87
2017-04-17T04:34:27.414Z,974.85
2017-04-17T04:35:28.015Z,974.85
2017-04-17T04:36:28.607Z,974.84
2017-04-17T04:37:29.202Z,974.85
2017-04-17T04:38:29.796Z,974.84
2017-04-17T04:39:30.394Z,974.85
2017-04-17T04:40:30.988Z,974.87
2017-04-17T04:41:31.584Z,974.86
2017-04-17T04:42:32.182Z,974.87
2017-04-17T04:43:32.799Z,974.83
2017-04-17T04:44:33.400Z,974.85
2017-04-17T04:45:34.012Z,974.86
2017-04-17T04:46:34.622Z,974.87
2017-04-17T04:47:35.220Z,974.87
2017-04-17T04:48:35.854Z,974.85
2017-04-17T04:49:36.451Z,974.88
2017-04-17T04:50:37.061Z,974.92
2017-04-17T04:51:37.714Z,974.88
2017-04-17T04:52:38.312Z,974.88
2017-04-17T04:53:38.915Z,974.88
2017-04-17T04:54:39.508Z,974.89
2017-04-17T04:55:40.112Z,974.86
2017-04-17T04:56:40.724Z,974.88
2017-04-17T04:57:41.341Z,974.87
2017-04-17T04:58:41.936Z,974.83
2017-04-17T04:59:42.531Z,974.82
2017-04-17T05:00:43.129Z,974.80
2017-04-17T05:01:43.730Z,974.77
2017-04-17T05:02:44.327Z,974.79
2017-04-17T05:03:44.924Z,974.71
2017-04-17T05:04:45.528Z,974.73
2017-04-17T05:05:46.124Z,974.69
2017-04-17T05:06:46.777Z,974.70
2017-04-17T05:07:47.393Z,974.72
2017-04-17T05:08:47.992Z,974.73
2017-04-17T05:09:48.589Z,974.74
2017-04-17T05:10:49.187Z,974.70
2017-04-17T05:11:49.800Z,974.70
2017-04-17T05:12:50.397Z,974.68
2017-04-17T05:13:50.997Z,974.68
2017-04-17T05:14:51.593Z,974.67
2017-04-17T05:15:52.196Z,974.66
2017-04-17T05:16:52.789Z,974.66
2017-04-17T05:17:53.388Z,974.69
2017-04-17T05:18:53.985Z,974.66
2017-04-17T05:19:54.603Z,974.64
2017-04-17T05:20:55.202Z,974.64
2017-04-17T05:21:55.797Z,974.67
2017-04-17T05:22:56.397Z,974.61
2017-04-17T05:23:57.012Z,974.57
2017-04-17T05:24:57.699Z,974.57
2017-04-17T05:25:58.304Z,974.54
2017-04-17T05:26:58.900Z,974.55
2017-04-17T05:27:59.497Z,974.54
2017-04-17T05:29:00.094Z,974.52
2017-04-17T05:30:00.693Z,974.53
2017-04-17T05:31:01.290Z,974.52
2017-04-17T05:32:01.887Z,974.54
2017-04-17T05:33:02.490Z,974.51
2017-04-17T05:34:03.103Z,974.53
2017-04-17T05:35:03.706Z,974.52
2017-04-17T05:36:04.303Z,974.49
2017-04-17T05:37:04.899Z,974.53
2017-04-17T05:38:05.496Z,974.50
2017-04-17T05:39:06.094Z,974.50
2017-04-17T05:40:06.764Z,974.51
2017-04-17T05:41:07.384Z,974.53
2017-04-17T05:42:07.981Z,974.51
2017-04-17T05:43:08.580Z,974.50
2017-04-17T05:44:09.177Z,974.50
2017-04-17T05:45:09.794Z,974.50
2017-04-17T05:46:10.390Z,974.45
2017-04-17T05:47:10.994Z,974.47
2017-04-17T05:48:11.606Z,974.45
2017-04-17T05:49:12.205Z,974.45
2017-04-17T05:50:12.801Z,974.48
2017-04-17T05:51:13.401Z,974.45
2017-04-17T05:52:14.004Z,974.44
2017-04-17T05:53:14.599Z,974.46
2017-04-17T05:54:15.203Z,974.50
2017-04-17T05:55:15.796Z,974.49
2017-04-17T05:56:16.396Z,974.49
2017-04-17T05:57:17.067Z,974.51
2017-04-17T05:58:17.666Z,974.51
2017-04-17T05:59:18.270Z,974.49
2017-04-17T06:00:18.868Z,974.50
2017-04-17T06:01:19.467Z,974.49
2017-04-17T06:02:20.065Z,974.51
2017-04-17T06:03:20.662Z,974.49
2017-04-17T06:04:21.267Z,974.47
2017-04-17T06:05:21.864Z,974.49
2017-04-17T06:06:22.461Z,974.53
2017-04-17T06:07:23.059Z,974.51
2017-04-17T06:08:23.662Z,974.48
2017-04-17T06:09:24.266Z,974.53
2017-04-17T06:10:24.879Z,974.49
2017-04-17T06:11:25.478Z,974.46
2017-04-17T06:12:26.085Z,974.49
2017-04-17T06:13:26.685Z,974.43
2017-04-17T06:14:27.300Z,974.46
2017-04-17T06:15:27.898Z,974.44
2017-04-17T06:16:28.497Z,974.44
2017-04-17T06:17:29.141Z,974.45
2017-04-17T06:18:29.745Z,974.45
2017-04-17T06:19:30.342Z,974.45
2017-04-17T06:20:30.942Z,974.45
2017-04-17T06:21:31.540Z,974.44
2017-04-17T06:22:32.153Z,974.47
2017-04-17T06:23:32.760Z,974.47
2017-04-17T06:24:33.356Z,974.54
2017-04-17T06:25:33.962Z,974.49
2017-04-17T06:26:34.561Z,974.53
2017-04-17T06:27:35.159Z,974.52
2017-04-17T06:28:35.785Z,974.56
2017-04-17T06:29:36.387Z,974.52
2017-04-17T06:30:36.992Z,974.50
2017-04-17T06:31:37.588Z,974.48
2017-04-17T06:32:38.228Z,974.52
2017-04-17T06:33:38.878Z,974.52
2017-04-17T06:34:39.482Z,974.55
2017-04-17T06:35:40.078Z,974.51
2017-04-17T06:36:40.678Z,974.51
2017-04-17T06:37:41.284Z,974.54
2017-04-17T06:38:41.881Z,974.53
2017-04-17T06:39:42.498Z,974.53
2017-04-17T06:40:43.098Z,974.52
2017-04-17T06:41:43.701Z,974.55
2017-04-17T06:42:44.301Z,974.52
2017-04-17T06:43:44.900Z,974.56
2017-04-17T06:44:45.502Z,974.51
2017-04-17T06:45:46.102Z,974.55
2017-04-17T06:46:46.704Z,974.56
2017-04-17T06:47:47.321Z,974.58
2017-04-17T06:48:47.922Z,974.60
2017-04-17T06:49:48.567Z,974.57
2017-04-17T06:50:49.170Z,974.59
2017-04-17T06:51:49.795Z,974.60
2017-04-17T06:52:50.393Z,974.60
2017-04-17T06:53:50.997Z,974.59
2017-04-17T06:54:51.594Z,974.54
2017-04-17T06:55:52.201Z,974.57
2017-04-17T06:56:52.805Z,974.57
2017-04-17T06:57:53.403Z,974.56
2017-04-17T06:58:54.010Z,974.60
2017-04-17T06:59:54.607Z,974.58
2017-04-17T07:00:55.214Z,974.58
2017-04-17T07:01:55.812Z,974.57
2017-04-17T07:02:56.427Z,974.54
2017-04-17T07:03:57.033Z,974.60
2017-04-17T07:04:57.644Z,974.55
2017-04-17T07:05:58.267Z,974.54
2017-04-17T07:06:58.938Z,974.51
2017-04-17T07:07:59.559Z,974.47
2017-04-17T07:09:00.158Z,974.46
2017-04-17T07:10:00.758Z,974.46
2017-04-17T07:11:01.362Z,974.46
2017-04-17T07:12:01.975Z,974.44
2017-04-17T07:13:02.576Z,974.44
2017-04-17T07:14:03.175Z,974.41
2017-04-17T07:15:03.803Z,974.44
2017-04-17T07:16:04.401Z,974.44
2017-04-17T07:17:05.002Z,974.40
2017-04-17T07:18:05.604Z,974.42
2017-04-17T07:19:06.204Z,974.37
2017-04-17T07:20:06.804Z,974.32
2017-04-17T07:21:07.420Z,974.34
2017-04-17T07:22:08.019Z,974.31
2017-04-17T07:23:08.620Z,974.33
2017-04-17T07:24:09.241Z,974.32
2017-04-17T07:25:09.835Z,974.32
2017-04-17T07:26:10.437Z,974.28
2017-04-17T07:27:11.041Z,974.20
2017-04-17T07:28:11.638Z,974.24
2017-04-17T07:29:12.239Z,974.25
2017-04-17T07:30:12.839Z,974.26
2017-04-17T07:31:13.448Z,974.27
2017-04-17T07:32:14.049Z,974.21
2017-04-17T07:33:14.649Z,974.17
2017-04-17T07:34:15.251Z,974.17
2017-04-17T07:35:15.875Z,974.18
2017-04-17T07:36:16.474Z,974.15
2017-04-17T07:37:17.083Z,974.16
2017-04-17T07:38:17.680Z,974.16
2017-04-17T07:39:18.287Z,974.15
2017-04-17T07:40:18.896Z,974.17
2017-04-17T07:41:19.513Z,974.13
2017-04-17T07:42:20.121Z,974.08
2017-04-17T07:43:20.724Z,974.12
2017-04-17T07:44:21.340Z,974.10
2017-04-17T07:45:21.943Z,974.07
2017-04-17T07:46:22.547Z,974.04
2017-04-17T07:47:23.150Z,973.99
2017-04-17T07:48:23.751Z,973.96
2017-04-17T07:49:24.360Z,973.96
2017-04-17T07:50:24.959Z,973.92
2017-04-17T07:51:25.565Z,973.91
2017-04-17T07:52:26.181Z,973.92
2017-04-17T07:53:26.785Z,973.85
2017-04-17T07:54:27.390Z,973.87
2017-04-17T07:55:27.995Z,973.85
2017-04-17T07:56:28.595Z,973.81
2017-04-17T07:57:29.204Z,973.80
2017-04-17T07:58:29.804Z,973.79
2017-04-17T07:59:30.410Z,973.81
2017-04-17T08:00:31.014Z,973.81
2017-04-17T08:01:31.621Z,973.79
2017-04-17T08:02:32.223Z,973.79
2017-04-17T08:03:32.828Z,973.74
2017-04-17T08:04:33.429Z,973.78
2017-04-17T08:05:34.034Z,973.79
2017-04-17T08:06:34.646Z,973.77
2017-04-17T08:07:35.252Z,973.73
2017-04-17T08:08:35.853Z,973.72
2017-04-17T08:09:36.456Z,973.77
2017-04-17T08:10:37.061Z,973.79
2017-04-17T08:11:37.664Z,973.79
2017-04-17T08:12:38.270Z,973.73
2017-04-17T08:13:38.899Z,973.75
2017-04-17T08:14:39.548Z,973.78
2017-04-17T08:15:40.153Z,973.76
2017-04-17T08:16:40.765Z,973.77
2017-04-17T08:17:41.366Z,973.80
2017-04-17T08:18:41.986Z,973.80
2017-04-17T08:19:42.589Z,973.78
2017-04-17T08:20:43.244Z,973.76
2017-04-17T08:21:43.849Z,973.76
2017-04-17T08:22:44.454Z,973.73
2017-04-17T08:23:45.059Z,973.70
2017-04-17T08:24:45.666Z,973.74
2017-04-17T08:25:46.271Z,973.74
2017-04-17T08:26:46.880Z,973.79
2017-04-17T08:27:47.483Z,973.80
2017-04-17T08:28:48.087Z,973.79
2017-04-17T08:29:48.695Z,973.77
2017-04-17T08:30:49.309Z,973.80
2017-04-17T08:31:49.916Z,973.75
2017-04-17T08:32:50.522Z,973.81
2017-04-17T08:33:51.134Z,973.90
2017-04-17T08:34:51.739Z,973.97
2017-04-17T08:35:52.348Z,973.95
2017-04-17T08:36:52.972Z,973.81
2017-04-17T08:37:53.580Z,973.75
2017-04-17T08:38:54.191Z,973.84
2017-04-17T08:39:54.805Z,973.84
2017-04-17T08:40:55.424Z,973.74
2017-04-17T08:41:56.031Z,973.89
2017-04-17T08:42:56.642Z,973.69
2017-04-17T08:43:57.263Z,973.79
2017-04-17T08:44:58.144Z,973.78
2017-04-17T08:45:58.759Z,973.72
2017-04-17T08:46:59.375Z,973.59
2017-04-17T08:47:59.990Z,973.62
2017-04-17T08:49:00.606Z,973.58
2017-04-17T08:50:01.221Z,973.53
2017-04-17T08:51:02.046Z,973.55
2017-04-17T08:52:02.680Z,973.57
2017-04-17T08:53:03.293Z,973.73
2017-04-17T08:54:03.909Z,973.63
2017-04-17T08:55:04.525Z,973.65
2017-04-17T08:56:05.157Z,973.62
2017-04-17T08:57:05.788Z,973.68
2017-04-17T08:58:06.410Z,973.54
2017-04-17T08:59:07.025Z,973.53
2017-04-17T09:00:07.642Z,973.46
2017-04-17T09:01:08.257Z,973.46
2017-04-17T09:02:08.875Z,973.46
2017-04-17T09:03:09.511Z,973.49
2017-04-17T09:04:10.125Z,973.44
2017-04-17T09:05:10.742Z,973.49
2017-04-17T09:06:11.360Z,973.55
2017-04-17T09:07:12.225Z,973.51
2017-04-17T09:08:12.842Z,973.37
2017-04-17T09:09:13.457Z,973.42
2017-04-17T09:10:14.081Z,973.33
2017-04-17T09:11:14.694Z,973.35
2017-04-17T09:12:15.308Z,973.31
2017-04-17T09:13:15.945Z,973.30
2017-04-17T09:14:16.810Z,973.38
2017-04-17T09:15:17.429Z,973.34
2017-04-17T09:16:18.039Z,973.32
2017-04-17T09:17:18.674Z,973.31
2017-04-17T09:18:19.285Z,973.28
2017-04-17T09:19:19.903Z,973.26
2017-04-17T09:20:20.518Z,973.28
2017-04-17T09:21:21.134Z,973.27
2017-04-17T09:22:21.751Z,973.24
2017-04-17T09:23:22.368Z,973.20
2017-04-17T09:24:22.977Z,973.21
2017-04-17T09:25:23.606Z,973.21
2017-04-17T09:26:24.234Z,973.27
2017-04-17T09:27:24.847Z,973.26
2017-04-17T09:28:25.461Z,973.25
2017-04-17T09:29:26.073Z,973.24
2017-04-17T09:30:26.684Z,973.22
2017-04-17T09:31:27.311Z,973.23
2017-04-17T09:32:27.921Z,973.27
2017-04-17T09:33:28.532Z,973.26
2017-04-17T09:34:29.161Z,973.24
2017-04-17T09:35:29.771Z,973.19
2017-04-17T09:36:30.387Z,973.15
2017-04-17T09:37:31.011Z,973.17
2017-04-17T09:38:31.622Z,973.10
2017-04-17T09:39:32.231Z,973.12
2017-04-17T09:40:32.842Z,973.09
2017-04-17T09:41:33.452Z,973.08
2017-04-17T09:42:34.066Z,973.07
2017-04-17T09:43:34.692Z,973.08
2017-04-17T09:44:35.300Z,973.05
2017-04-17T09:45:35.914Z,972.99
2017-04-17T09:46:36.525Z,973.00
2017-04-17T09:47:37.132Z,973.02
2017-04-17T09:48:37.741Z,973.05
2017-04-17T09:49:38.351Z,973.06
2017-04-17T09:50:38.966Z,973.03
2017-04-17T09:51:39.590Z,973.04
2017-04-17T09:52:40.199Z,972.98
2017-04-17T09:53:40.809Z,972.99
2017-04-17T09:54:41.438Z,972.99
2017-04-17T09:55:42.045Z,973.03
2017-04-17T09:56:42.651Z,972.99
2017-04-17T09:57:43.257Z,972.99
2017-04-17T09:58:43.863Z,973.00
2017-04-17T09:59:44.468Z,973.06
2017-04-17T10:00:45.075Z,973.09
2017-04-17T10:01:45.680Z,973.10
2017-04-17T10:02:46.291Z,973.14
2017-04-17T10:03:46.894Z,973.13
2017-04-17T10:04:47.505Z,973.13
2017-04-17T10:05:48.105Z,973.16
2017-04-17T10:06:48.715Z,973.18
2017-04-17T10:07:49.316Z,973.22
2017-04-17T10:08:49.922Z,973.17
2017-04-17T10:09:50.542Z,973.19
2017-04-17T10:10:51.163Z,973.22
2017-04-17T10:11:51.765Z,973.22
2017-04-17T10:12:52.369Z,973.17
2017-04-17T10:13:52.978Z,973.19
2017-04-17T10:14:53.680Z,973.22
2017-04-17T10:15:54.285Z,973.21
2017-04-17T10:16:54.886Z,973.24
2017-04-17T10:17:55.489Z,973.23
2017-04-17T10:18:56.114Z,973.23
2017-04-17T10:19:56.716Z,973.20
2017-04-17T10:20:57.321Z,973.23
2017-04-17T10:21:57.925Z,973.25
2017-04-17T10:22:58.550Z,973.24
2017-04-17T10:23:59.150Z,973.24
2017-04-17T10:24:59.755Z,973.24
2017-04-17T10:26:00.374Z,973.26
2017-04-17T10:27:00.996Z,973.19
2017-04-17T10:28:01.603Z,973.20
2017-04-17T10:29:02.205Z,973.22
2017-04-17T10:30:02.813Z,973.21
2017-04-17T10:31:03.413Z,973.17
2017-04-17T10:32:04.017Z,973.08
2017-04-17T10:33:04.620Z,973.09
2017-04-17T10:34:05.225Z,973.03
2017-04-17T10:35:05.831Z,973.01
2017-04-17T10:36:06.439Z,973.01
2017-04-17T10:37:07.046Z,972.97
2017-04-17T10:38:07.654Z,972.95
2017-04-17T10:39:08.255Z,972.97
2017-04-17T10:40:08.860Z,972.99
2017-04-17T10:41:09.538Z,972.97
2017-04-17T10:42:10.157Z,972.96
2017-04-17T10:43:10.760Z,972.97
2017-04-17T10:44:11.365Z,972.95
2017-04-17T10:45:11.968Z,972.92
2017-04-17T10:46:12.580Z,972.88
2017-04-17T10:47:13.183Z,972.90
2017-04-17T10:48:13.787Z,972.87
2017-04-17T10:49:14.397Z,972.90
2017-04-17T10:50:14.999Z,972.89
2017-04-17T10:51:15.607Z,972.87
2017-04-17T10:52:16.210Z,972.86
2017-04-17T10:53:16.823Z,972.86
2017-04-17T10:54:17.448Z,972.87
2017-04-17T10:55:18.056Z,972.85
2017-04-17T10:56:18.659Z,972.83
2017-04-17T10:57:19.265Z,972.87
2017-04-17T10:58:19.868Z,972.82
2017-04-17T10:59:20.473Z,972.76
2017-04-17T11:00:21.083Z,972.78
2017-04-17T11:01:21.686Z,972.77
2017-04-17T11:02:22.292Z,972.71
2017-04-17T11:03:22.898Z,972.64
2017-04-17T11:04:23.507Z,972.68
2017-04-17T11:05:24.131Z,972.69
2017-04-17T11:06:24.733Z,972.73
2017-04-17T11:07:25.338Z,972.71
2017-04-17T11:08:25.944Z,972.67
2017-04-17T11:09:26.549Z,972.67
2017-04-17T11:10:27.156Z,972.65
2017-04-17T11:11:27.762Z,972.70
2017-04-17T11:12:28.372Z,972.69
2017-04-17T11:13:28.974Z,972.67
2017-04-17T11:14:29.586Z,972.66
2017-04-17T11:15:30.188Z,972.68
2017-04-17T11:16:30.795Z,972.66
2017-04-17T11:17:31.400Z,972.64
2017-04-17T11:18:32.227Z,972.66
2017-04-17T11:19:32.837Z,972.64
2017-04-17T11:20:33.457Z,972.62
2017-04-17T11:21:34.064Z,972.64
2017-04-17T11:22:34.675Z,972.63
2017-04-17T11:23:35.283Z,972.60
2017-04-17T11:24:35.911Z,972.54
2017-04-17T11:25:36.510Z,972.57
2017-04-17T11:26:37.114Z,972.55
2017-04-17T11:27:37.719Z,972.55
2017-04-17T11:28:38.330Z,972.51
2017-04-17T11:29:38.933Z,972.48
2017-04-17T11:30:39.535Z,972.48
2017-04-17T11:31:40.147Z,972.47
2017-04-17T11:32:40.771Z,972.45
2017-04-17T11:33:41.373Z,972.45
2017-04-17T11:34:41.985Z,972.43
2017-04-17T11:35:42.612Z,972.45
2017-04-17T11:36:43.218Z,972.47
2017-04-17T11:37:43.818Z,972.46
2017-04-17T11:38:44.422Z,972.41
2017-04-17T11:39:45.033Z,972.42
2017-04-17T11:40:45.636Z,972.42
2017-04-17T11:41:46.255Z,972.38
2017-04-17T11:42:46.873Z,972.39
2017-04-17T11:43:47.479Z,972.38
2017-04-17T11:44:48.103Z,972.32
2017-04-17T11:45:48.706Z,972.37
2017-04-17T11:46:49.317Z,972.40
2017-04-17T11:47:49.917Z,972.44
2017-04-17T11:48:50.538Z,972.42
2017-04-17T11:49:51.140Z,972.41
2017-04-17T11:50:51.743Z,972.43
2017-04-17T11:51:52.353Z,972.43
2017-04-17T11:52:52.977Z,972.37
2017-04-17T11:53:53.578Z,972.37
2017-04-17T11:54:54.187Z,972.31
2017-04-17T11:55:54.909Z,972.33
2017-04-17T11:56:55.517Z,972.28
2017-04-17T11:57:56.116Z,972.26
2017-04-17T11:58:56.721Z,972.26
2017-04-17T11:59:57.326Z,972.28
2017-04-17T12:00:57.937Z,972.29
2017-04-17T12:01:58.540Z,972.27
2017-04-17T12:02:59.161Z,972.28
2017-04-17T12:03:59.765Z,972.27
2017-04-17T12:05:00.367Z,972.30
2017-04-17T12:06:00.971Z,972.27
2017-04-17T12:07:01.574Z,972.26
2017-04-17T12:08:02.180Z,972.25
2017-04-17T12:09:02.783Z,972.27
2017-04-17T12:10:03.385Z,972.23
2017-04-17T12:11:03.989Z,972.20
2017-04-17T12:12:04.609Z,972.20
2017-04-17T12:13:05.217Z,972.19
2017-04-17T12:14:05.817Z,972.21
2017-04-17T12:15:06.431Z,972.20
2017-04-17T12:16:07.035Z,972.20
2017-04-17T12:17:07.636Z,972.19
2017-04-17T12:18:08.239Z,972.27
2017-04-17T12:19:08.841Z,972.25
2017-04-17T12:20:09.444Z,972.25
2017-04-17T12:21:10.067Z,972.26
2017-04-17T12:22:10.669Z,972.25
2017-04-17T12:23:11.284Z,972.26
2017-04-17T12:24:11.889Z,972.20
2017-04-17T12:25:12.490Z,972.26
2017-04-17T12:26:13.097Z,972.19
2017-04-17T12:27:13.699Z,972.23
2017-04-17T12:28:14.306Z,972.11
2017-04-17T12:29:14.913Z,972.14
2017-04-17T12:30:15.535Z,972.17
2017-04-17T12:31:16.136Z,972.19
2017-04-17T12:32:16.739Z,972.14
2017-04-17T12:33:17.341Z,972.20
2017-04-17T12:34:17.944Z,972.22
2017-04-17T12:35:18.550Z,972.28
2017-04-17T12:36:19.170Z,972.27